sensor_id;sensor_type;location;lat;lon;timestamp;pressure;altitude;pressure_sealevel;temperature;humidity
9129;BME280;4599;50.906;6.786;2024-02-21T00:02:38;101080.69;;;7.93;87.29
9129;BME280;4599;50.906;6.786;2024-02-21T00:06:39;101075.50;;;8.12;87.11
9129;BME280;4599;50.906;6.786;2024-02-21T00:10:41;101077.84;;;7.99;86.50
9129;BME280;4599;50.906;6.786;2024-02-21T00:14:43;101075.75;;;7.90;88.10
9129;BME280;4599;50.906;6.786;2024-02-21T00:18:47;101066.91;;;7.97;87.36
9129;BME280;4599;50.906;6.786;2024-02-21T00:22:48;101055.84;;;8.14;86.13
9129;BME280;4599;50.906;6.786;2024-02-21T00:26:50;101063.81;;;8.08;86.08
9129;BME280;4599;50.906;6.786;2024-02-21T00:30:52;101050.38;;;8.04;86.28
9129;BME280;4599;50.906;6.786;2024-02-21T00:34:55;101041.50;;;8.11;85.23
9129;BME280;4599;50.906;6.786;2024-02-21T00:38:57;101037.06;;;8.15;84.45
9129;BME280;4599;50.906;6.786;2024-02-21T00:42:58;101042.47;;;8.09;84.83
9129;BME280;4599;50.906;6.786;2024-02-21T00:47:00;101029.16;;;8.19;84.06
9129;BME280;4599;50.906;6.786;2024-02-21T00:51:04;101021.28;;;8.24;83.02
9129;BME280;4599;50.906;6.786;2024-02-21T00:55:06;101013.88;;;8.02;84.58
9129;BME280;4599;50.906;6.786;2024-02-21T00:59:08;101018.59;;;8.10;84.04
9129;BME280;4599;50.906;6.786;2024-02-21T01:03:10;101019.81;;;8.02;84.57
9129;BME280;4599;50.906;6.786;2024-02-21T01:07:13;101007.13;;;8.01;84.05
9129;BME280;4599;50.906;6.786;2024-02-21T01:11:15;101003.44;;;8.07;84.14
9129;BME280;4599;50.906;6.786;2024-02-21T01:15:17;101000.72;;;8.10;84.69
9129;BME280;4599;50.906;6.786;2024-02-21T01:19:19;100996.78;;;8.04;85.05
9129;BME280;4599;50.906;6.786;2024-02-21T01:23:22;100994.13;;;8.06;83.86
9129;BME280;4599;50.906;6.786;2024-02-21T01:27:24;100994.28;;;8.02;84.20
9129;BME280;4599;50.906;6.786;2024-02-21T01:31:25;100989.13;;;8.04;84.58
9129;BME280;4599;50.906;6.786;2024-02-21T01:35:27;100982.81;;;8.11;84.36
9129;BME280;4599;50.906;6.786;2024-02-21T01:39:30;100981.38;;;8.06;84.04
9129;BME280;4599;50.906;6.786;2024-02-21T01:43:32;100982.13;;;8.08;84.09
9129;BME280;4599;50.906;6.786;2024-02-21T01:47:34;100976.94;;;8.09;84.24
9129;BME280;4599;50.906;6.786;2024-02-21T01:51:36;100953.94;;;8.09;83.03
9129;BME280;4599;50.906;6.786;2024-02-21T01:55:40;100967.97;;;8.18;83.42
9129;BME280;4599;50.906;6.786;2024-02-21T01:59:45;100974.53;;;8.06;83.51
9129;BME280;4599;50.906;6.786;2024-02-21T02:03:47;100952.06;;;8.13;83.59
9129;BME280;4599;50.906;6.786;2024-02-21T02:07:49;100949.91;;;8.05;83.86
9129;BME280;4599;50.906;6.786;2024-02-21T02:11:53;100933.19;;;7.99;84.59
9129;BME280;4599;50.906;6.786;2024-02-21T02:15:55;100931.22;;;8.05;85.05
9129;BME280;4599;50.906;6.786;2024-02-21T02:19:57;100917.66;;;7.87;84.51
9129;BME280;4599;50.906;6.786;2024-02-21T02:24:00;100927.75;;;7.90;85.23
9129;BME280;4599;50.906;6.786;2024-02-21T02:28:02;100907.34;;;7.90;85.18
9129;BME280;4599;50.906;6.786;2024-02-21T02:32:05;100898.03;;;7.89;84.12
9129;BME280;4599;50.906;6.786;2024-02-21T02:36:07;100895.47;;;8.05;83.75
9129;BME280;4599;50.906;6.786;2024-02-21T02:40:11;100881.00;;;8.05;83.48
9129;BME280;4599;50.906;6.786;2024-02-21T02:44:12;100884.28;;;7.91;84.80
9129;BME280;4599;50.906;6.786;2024-02-21T02:48:14;100876.63;;;7.91;84.49
9129;BME280;4599;50.906;6.786;2024-02-21T02:52:17;100880.09;;;8.06;83.21
9129;BME280;4599;50.906;6.786;2024-02-21T02:56:20;100876.78;;;7.88;84.54
9129;BME280;4599;50.906;6.786;2024-02-21T03:00:21;100859.41;;;7.95;84.50
9129;BME280;4599;50.906;6.786;2024-02-21T03:04:23;100844.09;;;7.95;83.22
9129;BME280;4599;50.906;6.786;2024-02-21T03:08:25;100848.72;;;7.88;83.00
9129;BME280;4599;50.906;6.786;2024-02-21T03:12:28;100851.03;;;7.93;83.45
9129;BME280;4599;50.906;6.786;2024-02-21T03:16:30;100840.00;;;7.92;83.05
9129;BME280;4599;50.906;6.786;2024-02-21T03:20:33;100840.66;;;7.96;82.05
9129;BME280;4599;50.906;6.786;2024-02-21T03:24:35;100829.56;;;7.97;82.62
9129;BME280;4599;50.906;6.786;2024-02-21T03:28:39;100826.75;;;7.86;83.23
9129;BME280;4599;50.906;6.786;2024-02-21T03:32:41;100827.63;;;7.85;83.91
9129;BME280;4599;50.906;6.786;2024-02-21T03:36:43;100822.53;;;7.85;83.75
9129;BME280;4599;50.906;6.786;2024-02-21T03:40:45;100819.47;;;7.78;85.59
9129;BME280;4599;50.906;6.786;2024-02-21T03:44:48;100807.38;;;7.82;85.14
9129;BME280;4599;50.906;6.786;2024-02-21T03:48:49;100815.13;;;7.80;84.73
9129;BME280;4599;50.906;6.786;2024-02-21T03:52:51;100811.59;;;7.83;84.87
9129;BME280;4599;50.906;6.786;2024-02-21T03:56:53;100794.44;;;7.69;85.17
9129;BME280;4599;50.906;6.786;2024-02-21T04:00:56;100802.44;;;7.79;84.11
9129;BME280;4599;50.906;6.786;2024-02-21T04:04:59;100816.28;;;7.90;82.75
9129;BME280;4599;50.906;6.786;2024-02-21T04:09:01;100817.94;;;7.76;84.67
9129;BME280;4599;50.906;6.786;2024-02-21T04:13:04;100819.13;;;7.69;85.79
9129;BME280;4599;50.906;6.786;2024-02-21T04:17:07;100817.56;;;7.66;84.41
9129;BME280;4599;50.906;6.786;2024-02-21T04:21:10;100814.94;;;7.68;85.09
9129;BME280;4599;50.906;6.786;2024-02-21T04:25:15;100805.47;;;7.70;84.16
9129;BME280;4599;50.906;6.786;2024-02-21T04:29:16;100803.13;;;7.82;83.49
9129;BME280;4599;50.906;6.786;2024-02-21T04:33:20;100781.38;;;7.91;82.63
9129;BME280;4599;50.906;6.786;2024-02-21T04:37:21;100786.56;;;7.89;82.60
9129;BME280;4599;50.906;6.786;2024-02-21T04:41:24;100779.09;;;7.86;83.17
9129;BME280;4599;50.906;6.786;2024-02-21T04:45:26;100798.56;;;7.72;83.75
9129;BME280;4599;50.906;6.786;2024-02-21T04:49:30;100793.22;;;7.76;85.32
9129;BME280;4599;50.906;6.786;2024-02-21T04:53:32;100788.22;;;7.75;84.28
9129;BME280;4599;50.906;6.786;2024-02-21T04:57:33;100784.16;;;7.71;86.00
9129;BME280;4599;50.906;6.786;2024-02-21T05:01:35;100782.44;;;7.71;84.58
9129;BME280;4599;50.906;6.786;2024-02-21T05:05:38;100780.06;;;7.68;85.98
9129;BME280;4599;50.906;6.786;2024-02-21T05:09:42;100784.16;;;7.71;84.36
9129;BME280;4599;50.906;6.786;2024-02-21T05:13:44;100782.44;;;7.71;85.11
9129;BME280;4599;50.906;6.786;2024-02-21T05:17:45;100781.06;;;7.81;83.86
9129;BME280;4599;50.906;6.786;2024-02-21T05:21:49;100782.09;;;7.77;82.35
9129;BME280;4599;50.906;6.786;2024-02-21T05:25:50;100788.63;;;7.83;81.76
9129;BME280;4599;50.906;6.786;2024-02-21T05:29:53;100775.19;;;7.95;81.43
9129;BME280;4599;50.906;6.786;2024-02-21T05:33:54;100779.41;;;7.96;80.77
9129;BME280;4599;50.906;6.786;2024-02-21T05:37:58;100762.44;;;7.95;80.95
9129;BME280;4599;50.906;6.786;2024-02-21T05:41:59;100764.16;;;7.94;81.56
9129;BME280;4599;50.906;6.786;2024-02-21T05:46:01;100770.66;;;7.84;83.11
9129;BME280;4599;50.906;6.786;2024-02-21T05:50:03;100767.56;;;7.79;82.83
9129;BME280;4599;50.906;6.786;2024-02-21T05:54:07;100770.84;;;7.81;83.82
9129;BME280;4599;50.906;6.786;2024-02-21T05:58:08;100769.53;;;7.74;83.86
9129;BME280;4599;50.906;6.786;2024-02-21T06:02:10;100764.16;;;7.63;84.79
9129;BME280;4599;50.906;6.786;2024-02-21T06:06:12;100762.69;;;7.59;84.03
9129;BME280;4599;50.906;6.786;2024-02-21T06:10:15;100751.50;;;7.77;82.93
9129;BME280;4599;50.906;6.786;2024-02-21T06:14:26;100735.59;;;7.72;83.67
9129;BME280;4599;50.906;6.786;2024-02-21T06:18:29;100742.72;;;7.83;83.07
9129;BME280;4599;50.906;6.786;2024-02-21T06:22:31;100742.75;;;7.66;83.00
9129;BME280;4599;50.906;6.786;2024-02-21T06:26:34;100742.09;;;7.62;86.26
9129;BME280;4599;50.906;6.786;2024-02-21T06:30:36;100734.44;;;7.62;85.46
9129;BME280;4599;50.906;6.786;2024-02-21T06:34:38;100730.00;;;7.66;85.06
9129;BME280;4599;50.906;6.786;2024-02-21T06:38:40;100724.84;;;7.67;84.68
9129;BME280;4599;50.906;6.786;2024-02-21T06:42:43;100722.63;;;7.61;84.17
9129;BME280;4599;50.906;6.786;2024-02-21T06:46:45;100715.63;;;7.65;84.18
9129;BME280;4599;50.906;6.786;2024-02-21T06:50:47;100712.31;;;7.63;84.29
9129;BME280;4599;50.906;6.786;2024-02-21T06:54:49;100708.22;;;7.60;85.29
9129;BME280;4599;50.906;6.786;2024-02-21T06:58:53;100708.13;;;7.62;86.80
9129;BME280;4599;50.906;6.786;2024-02-21T07:02:55;100702.22;;;7.61;87.82
9129;BME280;4599;50.906;6.786;2024-02-21T07:06:56;100692.91;;;7.60;86.38
9129;BME280;4599;50.906;6.786;2024-02-21T07:10:58;100698.56;;;7.65;86.51
9129;BME280;4599;50.906;6.786;2024-02-21T07:15:02;100690.69;;;7.70;84.68
9129;BME280;4599;50.906;6.786;2024-02-21T07:19:08;100686.66;;;7.81;84.03
9129;BME280;4599;50.906;6.786;2024-02-21T07:23:09;100689.53;;;7.75;85.04
9129;BME280;4599;50.906;6.786;2024-02-21T07:27:13;100692.75;;;7.79;83.97
9129;BME280;4599;50.906;6.786;2024-02-21T07:31:16;100693.97;;;7.87;84.71
9129;BME280;4599;50.906;6.786;2024-02-21T07:35:18;100685.75;;;7.82;83.77
9129;BME280;4599;50.906;6.786;2024-02-21T07:39:20;100689.19;;;7.97;83.66
9129;BME280;4599;50.906;6.786;2024-02-21T07:43:22;100680.31;;;7.88;83.46
9129;BME280;4599;50.906;6.786;2024-02-21T07:47:25;100675.53;;;7.82;83.93
9129;BME280;4599;50.906;6.786;2024-02-21T07:51:27;100681.31;;;7.86;83.82
9129;BME280;4599;50.906;6.786;2024-02-21T07:55:29;100682.03;;;7.88;83.24
9129;BME280;4599;50.906;6.786;2024-02-21T07:59:31;100670.50;;;7.96;82.41
9129;BME280;4599;50.906;6.786;2024-02-21T08:03:34;100662.19;;;7.93;82.44
9129;BME280;4599;50.906;6.786;2024-02-21T08:07:35;100660.06;;;7.85;82.63
9129;BME280;4599;50.906;6.786;2024-02-21T08:11:37;100658.56;;;7.97;81.22
9129;BME280;4599;50.906;6.786;2024-02-21T08:15:40;100652.22;;;7.88;82.75
9129;BME280;4599;50.906;6.786;2024-02-21T08:19:43;100643.97;;;7.99;82.32
9129;BME280;4599;50.906;6.786;2024-02-21T08:23:45;100638.09;;;8.13;80.55
9129;BME280;4599;50.906;6.786;2024-02-21T08:27:47;100624.50;;;8.12;80.76
9129;BME280;4599;50.906;6.786;2024-02-21T08:31:48;100612.38;;;8.16;80.85
9129;BME280;4599;50.906;6.786;2024-02-21T08:35:51;100599.94;;;8.25;79.75
9129;BME280;4599;50.906;6.786;2024-02-21T08:39:53;100568.53;;;8.09;80.07
9129;BME280;4599;50.906;6.786;2024-02-21T08:43:55;100599.88;;;8.41;78.94
9129;BME280;4599;50.906;6.786;2024-02-21T08:47:57;100597.31;;;8.41;79.41
9129;BME280;4599;50.906;6.786;2024-02-21T08:52:00;100587.75;;;8.44;79.08
9129;BME280;4599;50.906;6.786;2024-02-21T08:56:03;100570.50;;;8.48;78.54
9129;BME280;4599;50.906;6.786;2024-02-21T09:00:06;100572.88;;;8.79;76.71
9129;BME280;4599;50.906;6.786;2024-02-21T09:04:08;100561.91;;;8.91;75.05
9129;BME280;4599;50.906;6.786;2024-02-21T09:08:11;100555.06;;;8.92;74.61
9129;BME280;4599;50.906;6.786;2024-02-21T09:12:16;100554.09;;;9.07;73.25
9129;BME280;4599;50.906;6.786;2024-02-21T09:16:18;100551.00;;;9.16;71.76
9129;BME280;4599;50.906;6.786;2024-02-21T09:20:19;100545.47;;;9.22;72.54
9129;BME280;4599;50.906;6.786;2024-02-21T09:24:23;100544.19;;;9.29;70.86
9129;BME280;4599;50.906;6.786;2024-02-21T09:28:24;100535.75;;;9.41;71.42
9129;BME280;4599;50.906;6.786;2024-02-21T09:32:26;100523.72;;;9.56;69.41
9129;BME280;4599;50.906;6.786;2024-02-21T09:36:28;100523.59;;;9.58;67.63
9129;BME280;4599;50.906;6.786;2024-02-21T09:40:31;100518.13;;;9.37;67.62
9129;BME280;4599;50.906;6.786;2024-02-21T09:44:37;100514.97;;;9.46;69.24
9129;BME280;4599;50.906;6.786;2024-02-21T09:48:51;100507.47;;;9.30;68.85
9129;BME280;4599;50.906;6.786;2024-02-21T09:52:57;100482.03;;;9.41;69.56
9129;BME280;4599;50.906;6.786;2024-02-21T09:57:02;100474.72;;;9.35;69.50
9129;BME280;4599;50.906;6.786;2024-02-21T10:01:04;100481.81;;;9.44;69.06
9129;BME280;4599;50.906;6.786;2024-02-21T10:05:17;100493.94;;;9.55;68.30
9129;BME280;4599;50.906;6.786;2024-02-21T10:09:22;100492.56;;;9.49;68.55
9129;BME280;4599;50.906;6.786;2024-02-21T10:13:27;100498.00;;;9.45;68.16
9129;BME280;4599;50.906;6.786;2024-02-21T10:17:30;100496.84;;;9.36;68.21
9129;BME280;4599;50.906;6.786;2024-02-21T10:21:32;100486.66;;;9.49;67.83
9129;BME280;4599;50.906;6.786;2024-02-21T10:25:35;100475.31;;;9.66;67.52
9129;BME280;4599;50.906;6.786;2024-02-21T10:29:38;100466.22;;;9.87;66.59
9129;BME280;4599;50.906;6.786;2024-02-21T10:33:41;100457.91;;;9.83;65.84
9129;BME280;4599;50.906;6.786;2024-02-21T10:37:43;100454.72;;;9.92;66.23
9129;BME280;4599;50.906;6.786;2024-02-21T10:41:45;100464.03;;;10.06;65.88
9129;BME280;4599;50.906;6.786;2024-02-21T10:45:49;100452.72;;;10.23;64.28
9129;BME280;4599;50.906;6.786;2024-02-21T10:50:00;100434.03;;;10.08;64.76
9129;BME280;4599;50.906;6.786;2024-02-21T10:54:13;100426.25;;;10.10;65.11
9129;BME280;4599;50.906;6.786;2024-02-21T10:58:19;100419.50;;;10.21;63.87
9129;BME280;4599;50.906;6.786;2024-02-21T11:02:23;100406.91;;;10.55;65.84
9129;BME280;4599;50.906;6.786;2024-02-21T11:06:25;100398.63;;;10.75;63.31
9129;BME280;4599;50.906;6.786;2024-02-21T11:10:28;100384.75;;;10.66;62.93
9129;BME280;4599;50.906;6.786;2024-02-21T11:14:31;100380.22;;;10.70;62.58
9129;BME280;4599;50.906;6.786;2024-02-21T11:18:34;100371.03;;;10.55;64.19
9129;BME280;4599;50.906;6.786;2024-02-21T11:22:41;100338.22;;;10.60;63.80
9129;BME280;4599;50.906;6.786;2024-02-21T11:26:43;100332.78;;;10.40;63.62
9129;BME280;4599;50.906;6.786;2024-02-21T11:30:44;100317.63;;;10.37;65.18
9129;BME280;4599;50.906;6.786;2024-02-21T11:34:57;100305.38;;;10.30;64.76
9129;BME280;4599;50.906;6.786;2024-02-21T11:39:03;100281.69;;;10.50;65.08
9129;BME280;4599;50.906;6.786;2024-02-21T11:43:05;100267.28;;;10.60;64.63
9129;BME280;4599;50.906;6.786;2024-02-21T11:47:08;100263.28;;;10.80;63.46
9129;BME280;4599;50.906;6.786;2024-02-21T11:51:21;100249.56;;;10.57;63.13
9129;BME280;4599;50.906;6.786;2024-02-21T11:55:23;100234.63;;;10.40;64.03
9129;BME280;4599;50.906;6.786;2024-02-21T11:59:26;100225.88;;;10.42;64.40
9129;BME280;4599;50.906;6.786;2024-02-21T12:03:29;100210.19;;;10.47;63.68
9129;BME280;4599;50.906;6.786;2024-02-21T12:07:32;100195.63;;;10.47;64.83
9129;BME280;4599;50.906;6.786;2024-02-21T12:11:34;100189.00;;;10.56;63.42
9129;BME280;4599;50.906;6.786;2024-02-21T12:15:38;100177.25;;;10.65;64.21
9129;BME280;4599;50.906;6.786;2024-02-21T12:19:40;100160.47;;;10.61;64.14
9129;BME280;4599;50.906;6.786;2024-02-21T12:23:44;100150.81;;;10.64;64.67
9129;BME280;4599;50.906;6.786;2024-02-21T12:27:46;100133.31;;;10.47;64.47
9129;BME280;4599;50.906;6.786;2024-02-21T12:31:48;100125.53;;;10.60;63.84
9129;BME280;4599;50.906;6.786;2024-02-21T12:35:50;100099.56;;;10.75;64.51
9129;BME280;4599;50.906;6.786;2024-02-21T12:39:53;100049.38;;;10.51;63.67
9129;BME280;4599;50.906;6.786;2024-02-21T12:43:55;99987.06;;;10.50;63.85
9129;BME280;4599;50.906;6.786;2024-02-21T12:47:57;100030.63;;;10.61;63.03
9129;BME280;4599;50.906;6.786;2024-02-21T12:51:59;100055.91;;;10.55;63.76
9129;BME280;4599;50.906;6.786;2024-02-21T12:56:02;100078.31;;;11.07;63.15
9129;BME280;4599;50.906;6.786;2024-02-21T13:00:05;99994.56;;;10.85;62.74
9129;BME280;4599;50.906;6.786;2024-02-21T13:04:07;99996.81;;;10.78;62.64
9129;BME280;4599;50.906;6.786;2024-02-21T13:08:09;100008.72;;;11.11;62.96
9129;BME280;4599;50.906;6.786;2024-02-21T13:12:12;99984.53;;;11.25;61.31
9129;BME280;4599;50.906;6.786;2024-02-21T13:16:14;100016.16;;;11.25;60.82
9129;BME280;4599;50.906;6.786;2024-02-21T13:20:16;99997.97;;;11.49;60.47
9129;BME280;4599;50.906;6.786;2024-02-21T13:24:18;99998.31;;;11.24;60.08
9129;BME280;4599;50.906;6.786;2024-02-21T13:28:21;100000.53;;;11.17;60.38
9129;BME280;4599;50.906;6.786;2024-02-21T13:32:22;99981.19;;;11.13;60.96
9129;BME280;4599;50.906;6.786;2024-02-21T13:36:24;99967.19;;;11.17;61.82
9129;BME280;4599;50.906;6.786;2024-02-21T13:40:26;99948.28;;;10.97;62.75
9129;BME280;4599;50.906;6.786;2024-02-21T13:44:29;99937.31;;;10.95;64.03
9129;BME280;4599;50.906;6.786;2024-02-21T13:48:31;99916.00;;;10.95;62.29
9129;BME280;4599;50.906;6.786;2024-02-21T13:52:33;99908.69;;;10.90;63.13
9129;BME280;4599;50.906;6.786;2024-02-21T13:56:34;99902.47;;;11.04;63.51
9129;BME280;4599;50.906;6.786;2024-02-21T14:00:38;99884.88;;;10.99;61.64
9129;BME280;4599;50.906;6.786;2024-02-21T14:04:39;99906.00;;;10.92;61.96
9129;BME280;4599;50.906;6.786;2024-02-21T14:08:41;99892.94;;;10.95;61.87
9129;BME280;4599;50.906;6.786;2024-02-21T14:12:43;99893.69;;;11.07;61.96
9129;BME280;4599;50.906;6.786;2024-02-21T14:16:46;99877.75;;;11.03;63.10
9129;BME280;4599;50.906;6.786;2024-02-21T14:20:48;99867.75;;;11.21;60.77
9129;BME280;4599;50.906;6.786;2024-02-21T14:24:49;99850.50;;;11.23;61.28
9129;BME280;4599;50.906;6.786;2024-02-21T14:28:51;99835.53;;;11.28;60.73
9129;BME280;4599;50.906;6.786;2024-02-21T14:32:54;99836.72;;;11.24;61.53
9129;BME280;4599;50.906;6.786;2024-02-21T14:36:56;99845.78;;;11.28;61.92
9129;BME280;4599;50.906;6.786;2024-02-21T14:41:00;99836.22;;;11.30;61.43
9129;BME280;4599;50.906;6.786;2024-02-21T14:45:02;99833.66;;;11.30;62.17
9129;BME280;4599;50.906;6.786;2024-02-21T14:49:05;99818.50;;;11.47;61.24
9129;BME280;4599;50.906;6.786;2024-02-21T14:53:08;99804.69;;;11.48;59.81
9129;BME280;4599;50.906;6.786;2024-02-21T14:57:09;99788.19;;;11.41;60.66
9129;BME280;4599;50.906;6.786;2024-02-21T15:01:11;99795.63;;;11.44;58.58
9129;BME280;4599;50.906;6.786;2024-02-21T15:05:14;99776.34;;;11.40;59.66
9129;BME280;4599;50.906;6.786;2024-02-21T15:09:16;99776.78;;;11.25;58.84
9129;BME280;4599;50.906;6.786;2024-02-21T15:13:18;99764.09;;;11.23;56.35
9129;BME280;4599;50.906;6.786;2024-02-21T15:17:20;99749.09;;;11.19;55.34
9129;BME280;4599;50.906;6.786;2024-02-21T15:21:23;99744.91;;;11.18;54.83
9129;BME280;4599;50.906;6.786;2024-02-21T15:25:25;99732.84;;;10.88;54.50
9129;BME280;4599;50.906;6.786;2024-02-21T15:29:26;99735.38;;;10.78;56.67
9129;BME280;4599;50.906;6.786;2024-02-21T15:33:28;99711.34;;;10.70;56.79
9129;BME280;4599;50.906;6.786;2024-02-21T15:37:31;99714.13;;;10.67;55.63
9129;BME280;4599;50.906;6.786;2024-02-21T15:41:33;99716.44;;;10.49;56.35
9129;BME280;4599;50.906;6.786;2024-02-21T15:45:35;99691.03;;;10.36;56.36
9129;BME280;4599;50.906;6.786;2024-02-21T15:49:37;99699.00;;;10.43;56.76
9129;BME280;4599;50.906;6.786;2024-02-21T15:53:40;99701.25;;;10.36;57.87
9129;BME280;4599;50.906;6.786;2024-02-21T15:57:41;99688.25;;;10.28;58.68
9129;BME280;4599;50.906;6.786;2024-02-21T16:01:43;99669.19;;;10.21;58.70
9129;BME280;4599;50.906;6.786;2024-02-21T16:05:45;99652.25;;;10.09;58.95
9129;BME280;4599;50.906;6.786;2024-02-21T16:09:48;99652.47;;;10.06;59.08
9129;BME280;4599;50.906;6.786;2024-02-21T16:13:50;99651.13;;;10.02;60.89
9129;BME280;4599;50.906;6.786;2024-02-21T16:17:52;99629.94;;;10.00;59.08
9129;BME280;4599;50.906;6.786;2024-02-21T16:21:54;99616.47;;;9.98;60.85
9129;BME280;4599;50.906;6.786;2024-02-21T16:25:57;99611.41;;;9.87;59.88
9129;BME280;4599;50.906;6.786;2024-02-21T16:29:59;99582.38;;;9.97;59.83
9129;BME280;4599;50.906;6.786;2024-02-21T16:34:00;99577.31;;;9.86;60.15
9129;BME280;4599;50.906;6.786;2024-02-21T16:38:02;99582.19;;;9.89;59.85
9129;BME280;4599;50.906;6.786;2024-02-21T16:42:06;99573.16;;;9.74;60.47
9129;BME280;4599;50.906;6.786;2024-02-21T16:46:07;99577.25;;;9.77;60.11
9129;BME280;4599;50.906;6.786;2024-02-21T16:50:09;99551.81;;;9.64;59.91
9129;BME280;4599;50.906;6.786;2024-02-21T16:54:11;99568.19;;;9.73;60.58
9129;BME280;4599;50.906;6.786;2024-02-21T16:58:14;99577.38;;;9.75;60.06
9129;BME280;4599;50.906;6.786;2024-02-21T17:02:16;99562.38;;;9.71;61.58
9129;BME280;4599;50.906;6.786;2024-02-21T17:06:18;99550.00;;;9.55;61.47
9129;BME280;4599;50.906;6.786;2024-02-21T17:10:20;99554.22;;;9.56;62.18
9129;BME280;4599;50.906;6.786;2024-02-21T17:14:23;99549.97;;;9.66;62.34
9129;BME280;4599;50.906;6.786;2024-02-21T17:18:25;99545.56;;;9.57;63.43
9129;BME280;4599;50.906;6.786;2024-02-21T17:22:27;99537.47;;;9.52;64.91
9129;BME280;4599;50.906;6.786;2024-02-21T17:26:31;99534.25;;;9.39;64.87
9129;BME280;4599;50.906;6.786;2024-02-21T17:30:34;99524.03;;;9.39;65.74
9129;BME280;4599;50.906;6.786;2024-02-21T17:34:36;99518.47;;;9.34;66.63
9129;BME280;4599;50.906;6.786;2024-02-21T17:38:37;99516.41;;;9.28;68.41
9129;BME280;4599;50.906;6.786;2024-02-21T17:42:39;99494.09;;;9.30;68.30
9129;BME280;4599;50.906;6.786;2024-02-21T17:46:42;99498.88;;;9.23;69.18
9129;BME280;4599;50.906;6.786;2024-02-21T17:50:44;99475.34;;;9.09;71.17
9129;BME280;4599;50.906;6.786;2024-02-21T17:54:46;99465.06;;;8.88;73.06
9129;BME280;4599;50.906;6.786;2024-02-21T17:58:48;99456.38;;;8.79;73.96
9129;BME280;4599;50.906;6.786;2024-02-21T18:02:51;99434.81;;;8.72;75.59
9129;BME280;4599;50.906;6.786;2024-02-21T18:06:53;99422.06;;;8.61;76.28
9129;BME280;4599;50.906;6.786;2024-02-21T18:10:55;99416.88;;;8.52;77.29
9129;BME280;4599;50.906;6.786;2024-02-21T18:14:57;99394.94;;;8.49;78.08
9129;BME280;4599;50.906;6.786;2024-02-21T18:19:02;99398.19;;;8.40;80.27
9129;BME280;4599;50.906;6.786;2024-02-21T18:23:04;99364.00;;;8.20;77.83
9129;BME280;4599;50.906;6.786;2024-02-21T18:27:06;99353.22;;;8.17;80.68
9129;BME280;4599;50.906;6.786;2024-02-21T18:31:08;99345.78;;;8.14;81.35
9129;BME280;4599;50.906;6.786;2024-02-21T18:35:11;99348.25;;;7.93;83.89
9129;BME280;4599;50.906;6.786;2024-02-21T18:39:13;99356.00;;;7.91;84.21
9129;BME280;4599;50.906;6.786;2024-02-21T18:43:15;99345.94;;;7.90;85.42
9129;BME280;4599;50.906;6.786;2024-02-21T18:47:17;99347.91;;;7.86;85.48
9129;BME280;4599;50.906;6.786;2024-02-21T18:51:20;99350.69;;;7.83;86.33
9129;BME280;4599;50.906;6.786;2024-02-21T18:55:22;99345.56;;;7.83;86.43
9129;BME280;4599;50.906;6.786;2024-02-21T18:59:23;99346.88;;;7.78;86.45
9129;BME280;4599;50.906;6.786;2024-02-21T19:03:25;99353.38;;;7.82;89.01
9129;BME280;4599;50.906;6.786;2024-02-21T19:07:28;99342.25;;;7.83;87.22
9129;BME280;4599;50.906;6.786;2024-02-21T19:11:30;99339.69;;;7.83;88.48
9129;BME280;4599;50.906;6.786;2024-02-21T19:15:32;99331.66;;;7.76;89.80
9129;BME280;4599;50.906;6.786;2024-02-21T19:19:34;99331.00;;;7.74;89.86
9129;BME280;4599;50.906;6.786;2024-02-21T19:23:37;99323.69;;;7.81;90.39
9129;BME280;4599;50.906;6.786;2024-02-21T19:27:39;99310.47;;;7.76;89.34
9129;BME280;4599;50.906;6.786;2024-02-21T19:31:41;99284.03;;;7.77;89.60
9129;BME280;4599;50.906;6.786;2024-02-21T19:35:42;99283.34;;;7.75;90.42
9129;BME280;4599;50.906;6.786;2024-02-21T19:39:45;99263.06;;;7.73;90.55
9129;BME280;4599;50.906;6.786;2024-02-21T19:43:47;99242.31;;;7.67;91.26
9129;BME280;4599;50.906;6.786;2024-02-21T19:47:49;99239.78;;;7.67;91.70
9129;BME280;4599;50.906;6.786;2024-02-21T19:51:50;99229.69;;;7.65;92.19
9129;BME280;4599;50.906;6.786;2024-02-21T19:55:54;99214.59;;;7.73;92.14
9129;BME280;4599;50.906;6.786;2024-02-21T19:59:55;99218.22;;;7.71;92.62
9129;BME280;4599;50.906;6.786;2024-02-21T20:03:57;99208.09;;;7.80;91.10
9129;BME280;4599;50.906;6.786;2024-02-21T20:08:00;99191.88;;;7.81;91.33
9129;BME280;4599;50.906;6.786;2024-02-21T20:12:04;99188.88;;;7.65;92.95
9129;BME280;4599;50.906;6.786;2024-02-21T20:16:06;99168.47;;;7.76;91.66
9129;BME280;4599;50.906;6.786;2024-02-21T20:20:09;99172.56;;;7.68;93.06
9129;BME280;4599;50.906;6.786;2024-02-21T20:24:11;99161.06;;;7.73;91.64
9129;BME280;4599;50.906;6.786;2024-02-21T20:28:29;99156.09;;;7.72;93.32
9129;BME280;4599;50.906;6.786;2024-02-21T20:32:31;99153.75;;;7.69;93.09
9129;BME280;4599;50.906;6.786;2024-02-21T20:36:33;99156.22;;;7.59;94.01
9129;BME280;4599;50.906;6.786;2024-02-21T20:40:35;99150.22;;;7.60;93.20
9129;BME280;4599;50.906;6.786;2024-02-21T20:44:38;99146.00;;;7.70;93.51
9129;BME280;4599;50.906;6.786;2024-02-21T20:48:40;99126.34;;;7.61;94.06
9129;BME280;4599;50.906;6.786;2024-02-21T20:52:41;99125.03;;;7.67;94.02
9129;BME280;4599;50.906;6.786;2024-02-21T20:56:43;99107.53;;;7.62;94.05
9129;BME280;4599;50.906;6.786;2024-02-21T21:00:47;99104.63;;;7.67;93.70
9129;BME280;4599;50.906;6.786;2024-02-21T21:04:48;99096.66;;;7.60;94.89
9129;BME280;4599;50.906;6.786;2024-02-21T21:08:50;99093.63;;;7.66;93.66
9129;BME280;4599;50.906;6.786;2024-02-21T21:12:52;99089.69;;;7.62;95.24
9129;BME280;4599;50.906;6.786;2024-02-21T21:16:55;99069.44;;;7.61;95.78
9129;BME280;4599;50.906;6.786;2024-02-21T21:20:57;99069.19;;;7.64;95.20
9129;BME280;4599;50.906;6.786;2024-02-21T21:24:59;99071.59;;;7.65;95.21
9129;BME280;4599;50.906;6.786;2024-02-21T21:29:00;99063.53;;;7.60;94.56
9129;BME280;4599;50.906;6.786;2024-02-21T21:33:04;99058.44;;;7.81;94.25
9129;BME280;4599;50.906;6.786;2024-02-21T21:37:06;99054.31;;;7.69;94.88
9129;BME280;4599;50.906;6.786;2024-02-21T21:41:08;99048.19;;;7.71;95.20
9129;BME280;4599;50.906;6.786;2024-02-21T21:45:10;99044.47;;;7.75;95.37
9129;BME280;4599;50.906;6.786;2024-02-21T21:49:13;99040.66;;;7.70;95.92
9129;BME280;4599;50.906;6.786;2024-02-21T21:53:15;99037.63;;;7.76;95.63
9129;BME280;4599;50.906;6.786;2024-02-21T21:57:17;99031.16;;;7.72;95.63
9129;BME280;4599;50.906;6.786;2024-02-21T22:01:19;99020.19;;;7.81;95.29
9129;BME280;4599;50.906;6.786;2024-02-21T22:05:24;99021.63;;;7.74;95.66